Terminal Aerodrome Forecast
Issued by NWS

Home | Current Version | Previous Version | Graphics & Text | Print | Product List | Glossary On
Versions: 1 2 3 4 5 6 7 8 9 10 11 12 13 14 15 16 17 18 19 20 21 22 23 24 25 26 27 28 29
000
FTUS43 KLOT 231754
TAFMDW
TAF
KMDW 231754Z 2318/2424 28012G20KT P6SM OVC008
     FM232000 27012G20KT P6SM OVC012
     FM240000 28007KT P6SM SCT015 OVC150
     FM240600 34005KT 6SM BR BKN015
     FM240900 04008KT 6SM BR SCT007 OVC015
     FM241200 08012KT P6SM SCT007 OVC015 PROB30 2412/2415 3SM
      -FZRASN BKN007
     FM241500 10012KT 6SM -RA BR SCT007 OVC012 PROB30 2415/2421 4SM
      -RA BR BKN007=

USA.gov is the U.S. government's official web portal to all federal, state and local government web resources and services.